To NAV CANADA Home Page Login to a new session Search on AWWS site Feedback and Comments Disclaimer Vers la page française équivalente Tips FAQ What's new on the site To the Forecasts and Observations / NOTAM section To "File a Flight Plan" website Publications and other links Update of the User's profile FIC Telephone Numbers My Weather Data Folder Route Weather Data Regional Weather Data Local Weather Data To the Forecasts and Observations / NOTAM section
Request Generated 06/26/2017 at 22:27:53 UTC . Weather information available at that time is displayed.

METAR/TAF

SLAVE LAKE/AB    (show WxCam)

METAR CYZH 262200Z AUTO 31003KT 250V010 9SM FEW160 20/16 A2965 RMK
SLP045 DENSITY ALT 3100FT=
METAR CYZH 262100Z AUTO 35005KT 9SM BKN140 BKN160 BKN200 22/13 A2967
RMK SLP048 DENSITY ALT 3400FT=
METAR CYZH 262000Z AUTO 07006KT 030V120 9SM BKN130 BKN150 22/13 A2967
RMK SLP049 DENSITY ALT 3400FT=

TAF CYZH 261850Z 2619/2707 12010KT P6SM BKN140 TEMPO 2619/2623 P6SM
VCSH BKN110
FM262300 07005KT P6SM SCT100 BKN140 TEMPO 2623/2704 VRB25G35KT
P6SM -TSRA BKN100CB PROB30 2623/2704 VRB30G45KT 4SM TSRA
BKN090CB
FM270400 30012KT P6SM SCT060 SCT200
RMK FCST BASED ON AUTO OBS. NXT FCST BY 270100Z=
Your time UTC time
Weather data provided by Environment Canada and NAV CANADA